sensor_id;sensor_type;location;lat;lon;timestamp;pressure;altitude;pressure_sealevel;temperature;humidity
50103;BME280;35993;52.604;10.078;2023-03-31T00:01:59;100055.19;;;9.79;100.00
50103;BME280;35993;52.604;10.078;2023-03-31T00:04:26;100048.94;;;9.78;100.00
50103;BME280;35993;52.604;10.078;2023-03-31T00:06:52;100041.38;;;9.80;100.00
50103;BME280;35993;52.604;10.078;2023-03-31T00:09:20;100049.28;;;9.82;100.00
50103;BME280;35993;52.604;10.078;2023-03-31T00:11:48;100046.94;;;9.86;100.00
50103;BME280;35993;52.604;10.078;2023-03-31T00:14:14;100046.72;;;9.87;100.00
50103;BME280;35993;52.604;10.078;2023-03-31T00:16:42;100037.75;;;9.87;100.00
50103;BME280;35993;52.604;10.078;2023-03-31T00:19:10;100034.00;;;9.88;100.00
50103;BME280;35993;52.604;10.078;2023-03-31T00:21:43;100030.69;;;9.86;100.00
50103;BME280;35993;52.604;10.078;2023-03-31T00:24:11;100028.59;;;9.88;100.00
50103;BME280;35993;52.604;10.078;2023-03-31T00:26:37;100019.16;;;9.90;100.00
50103;BME280;35993;52.604;10.078;2023-03-31T00:29:04;100019.97;;;9.91;100.00
50103;BME280;35993;52.604;10.078;2023-03-31T00:31:31;100019.97;;;9.91;100.00
50103;BME280;35993;52.604;10.078;2023-03-31T00:33:57;100016.81;;;9.94;100.00
50103;BME280;35993;52.604;10.078;2023-03-31T00:36:23;100007.16;;;9.98;100.00
50103;BME280;35993;52.604;10.078;2023-03-31T00:38:53;99993.59;;;9.98;100.00
50103;BME280;35993;52.604;10.078;2023-03-31T00:41:18;100008.22;;;9.97;100.00
50103;BME280;35993;52.604;10.078;2023-03-31T00:46:32;100001.25;;;9.89;100.00
50103;BME280;35993;52.604;10.078;2023-03-31T00:48:58;100006.19;;;9.92;100.00
50103;BME280;35993;52.604;10.078;2023-03-31T00:51:30;100002.44;;;9.93;100.00
50103;BME280;35993;52.604;10.078;2023-03-31T00:53:57;100003.28;;;9.94;100.00
50103;BME280;35993;52.604;10.078;2023-03-31T00:56:30;99995.94;;;9.94;100.00
50103;BME280;35993;52.604;10.078;2023-03-31T00:59:01;99993.59;;;9.98;100.00
50103;BME280;35993;52.604;10.078;2023-03-31T01:01:28;99987.13;;;9.99;100.00
50103;BME280;35993;52.604;10.078;2023-03-31T01:03:55;99981.94;;;9.97;100.00
50103;BME280;35993;52.604;10.078;2023-03-31T01:06:22;99984.28;;;9.94;100.00
50103;BME280;35993;52.604;10.078;2023-03-31T01:08:50;99983.91;;;9.90;100.00
50103;BME280;35993;52.604;10.078;2023-03-31T01:11:19;99973.53;;;9.87;100.00
50103;BME280;35993;52.604;10.078;2023-03-31T01:13:47;99972.84;;;9.92;100.00
50103;BME280;35993;52.604;10.078;2023-03-31T01:16:16;99964.94;;;9.90;100.00
50103;BME280;35993;52.604;10.078;2023-03-31T01:18:43;99963.03;;;9.91;100.00
50103;BME280;35993;52.604;10.078;2023-03-31T01:29:58;99949.84;;;9.94;100.00
50103;BME280;35993;52.604;10.078;2023-03-31T01:32:55;99944.00;;;9.97;100.00
50103;BME280;35993;52.604;10.078;2023-03-31T01:40:40;99933.94;;;9.86;100.00
50103;BME280;35993;52.604;10.078;2023-03-31T01:48:29;99918.22;;;9.76;100.00
50103;BME280;35993;52.604;10.078;2023-03-31T01:51:08;99911.50;;;9.79;100.00
50103;BME280;35993;52.604;10.078;2023-03-31T01:59:13;99904.06;;;9.74;100.00
50103;BME280;35993;52.604;10.078;2023-03-31T02:04:14;99897.28;;;9.83;100.00
50103;BME280;35993;52.604;10.078;2023-03-31T02:06:46;99893.72;;;9.83;100.00
50103;BME280;35993;52.604;10.078;2023-03-31T02:09:22;99890.09;;;9.89;100.00
50103;BME280;35993;52.604;10.078;2023-03-31T02:11:50;99882.19;;;9.88;100.00
50103;BME280;35993;52.604;10.078;2023-03-31T02:14:22;99888.28;;;9.83;100.00
50103;BME280;35993;52.604;10.078;2023-03-31T02:16:54;99871.47;;;9.81;100.00
50103;BME280;35993;52.604;10.078;2023-03-31T02:19:26;99871.09;;;9.77;100.00
50103;BME280;35993;52.604;10.078;2023-03-31T02:21:54;99873.69;;;9.72;100.00
50103;BME280;35993;52.604;10.078;2023-03-31T02:24:22;99865.78;;;9.71;100.00
50103;BME280;35993;52.604;10.078;2023-03-31T02:26:53;99861.59;;;9.56;100.00
50103;BME280;35993;52.604;10.078;2023-03-31T02:29:20;99855.94;;;9.58;100.00
50103;BME280;35993;52.604;10.078;2023-03-31T02:31:52;99855.72;;;9.59;100.00
50103;BME280;35993;52.604;10.078;2023-03-31T02:34:20;99857.03;;;9.57;100.00
50103;BME280;35993;52.604;10.078;2023-03-31T02:36:47;99853.09;;;9.52;100.00
50103;BME280;35993;52.604;10.078;2023-03-31T02:39:17;99847.47;;;9.54;100.00
50103;BME280;35993;52.604;10.078;2023-03-31T02:41:45;99844.03;;;9.47;100.00
50103;BME280;35993;52.604;10.078;2023-03-31T02:44:11;99838.00;;;9.45;100.00
50103;BME280;35993;52.604;10.078;2023-03-31T02:46:36;99838.97;;;9.50;100.00
50103;BME280;35993;52.604;10.078;2023-03-31T02:49:05;99842.97;;;9.48;100.00
50103;BME280;35993;52.604;10.078;2023-03-31T02:54:39;99842.47;;;9.39;100.00
50103;BME280;35993;52.604;10.078;2023-03-31T02:57:30;99837.19;;;9.44;100.00
50103;BME280;35993;52.604;10.078;2023-03-31T03:00:11;99830.47;;;9.47;100.00
50103;BME280;35993;52.604;10.078;2023-03-31T03:08:39;99821.44;;;9.53;100.00
50103;BME280;35993;52.604;10.078;2023-03-31T03:13:56;99808.78;;;9.35;100.00
50103;BME280;35993;52.604;10.078;2023-03-31T03:16:31;99810.22;;;9.38;100.00
50103;BME280;35993;52.604;10.078;2023-03-31T03:18:59;99805.59;;;9.38;100.00
50103;BME280;35993;52.604;10.078;2023-03-31T03:21:26;99804.31;;;9.41;100.00
50103;BME280;35993;52.604;10.078;2023-03-31T03:23:52;99790.91;;;9.46;100.00
50103;BME280;35993;52.604;10.078;2023-03-31T03:26:18;99789.84;;;9.47;100.00
50103;BME280;35993;52.604;10.078;2023-03-31T03:28:49;99783.63;;;9.46;100.00
50103;BME280;35993;52.604;10.078;2023-03-31T03:31:15;99790.91;;;9.46;100.00
50103;BME280;35993;52.604;10.078;2023-03-31T03:33:41;99786.41;;;9.40;100.00
50103;BME280;35993;52.604;10.078;2023-03-31T03:36:07;99789.22;;;9.33;100.00
50103;BME280;35993;52.604;10.078;2023-03-31T03:38:33;99781.47;;;9.37;100.00
50103;BME280;35993;52.604;10.078;2023-03-31T03:40:59;99774.75;;;9.39;100.00
50103;BME280;35993;52.604;10.078;2023-03-31T03:43:24;99773.69;;;9.40;100.00
50103;BME280;35993;52.604;10.078;2023-03-31T03:45:50;99772.66;;;9.41;100.00
50103;BME280;35993;52.604;10.078;2023-03-31T03:48:17;99763.56;;;9.35;100.00
50103;BME280;35993;52.604;10.078;2023-03-31T03:50:44;99758.13;;;9.35;100.00
50103;BME280;35993;52.604;10.078;2023-03-31T03:53:10;99757.31;;;9.35;100.00
50103;BME280;35993;52.604;10.078;2023-03-31T03:55:35;99751.91;;;9.35;100.00
50103;BME280;35993;52.604;10.078;2023-03-31T03:58:01;99743.31;;;9.38;100.00
50103;BME280;35993;52.604;10.078;2023-03-31T04:00:27;99735.41;;;9.37;100.00
50103;BME280;35993;52.604;10.078;2023-03-31T04:02:52;99733.19;;;9.33;100.00
50103;BME280;35993;52.604;10.078;2023-03-31T04:05:18;99727.41;;;9.30;100.00
50103;BME280;35993;52.604;10.078;2023-03-31T04:07:43;99726.91;;;9.33;100.00
50103;BME280;35993;52.604;10.078;2023-03-31T04:10:09;99718.66;;;9.28;100.00
50103;BME280;35993;52.604;10.078;2023-03-31T04:12:35;99715.16;;;9.27;100.00
50103;BME280;35993;52.604;10.078;2023-03-31T04:15:00;99710.06;;;9.19;100.00
50103;BME280;35993;52.604;10.078;2023-03-31T04:17:26;99708.88;;;9.15;100.00
50103;BME280;35993;52.604;10.078;2023-03-31T04:20:04;99694.03;;;9.06;100.00
50103;BME280;35993;52.604;10.078;2023-03-31T04:22:32;99695.09;;;9.05;100.00
50103;BME280;35993;52.604;10.078;2023-03-31T04:25:09;99679.44;;;9.07;100.00
50103;BME280;35993;52.604;10.078;2023-03-31T04:27:57;99682.97;;;9.07;100.00
50103;BME280;35993;52.604;10.078;2023-03-31T04:30:24;99678.84;;;9.05;100.00
50103;BME280;35993;52.604;10.078;2023-03-31T04:32:57;99680.81;;;8.97;100.00
50103;BME280;35993;52.604;10.078;2023-03-31T04:35:24;99675.41;;;8.97;100.00
50103;BME280;35993;52.604;10.078;2023-03-31T04:37:52;99664.81;;;8.96;100.00
50103;BME280;35993;52.604;10.078;2023-03-31T04:40:25;99665.50;;;8.91;100.00
50103;BME280;35993;52.604;10.078;2023-03-31T04:42:51;99653.38;;;8.94;100.00
50103;BME280;35993;52.604;10.078;2023-03-31T04:45:17;99652.69;;;8.98;100.00
50103;BME280;35993;52.604;10.078;2023-03-31T04:47:43;99652.25;;;9.01;100.00
50103;BME280;35993;52.604;10.078;2023-03-31T04:50:09;99647.66;;;9.02;100.00
50103;BME280;35993;52.604;10.078;2023-03-31T04:52:36;99637.53;;;9.09;100.00
50103;BME280;35993;52.604;10.078;2023-03-31T04:55:02;99622.34;;;9.08;100.00
50103;BME280;35993;52.604;10.078;2023-03-31T04:57:27;99627.28;;;9.11;100.00
50103;BME280;35993;52.604;10.078;2023-03-31T04:59:53;99626.84;;;9.14;100.00
50103;BME280;35993;52.604;10.078;2023-03-31T05:02:18;99617.88;;;9.14;100.00
50103;BME280;35993;52.604;10.078;2023-03-31T05:04:50;99612.22;;;9.15;100.00
50103;BME280;35993;52.604;10.078;2023-03-31T05:07:17;99606.69;;;9.22;100.00
50103;BME280;35993;52.604;10.078;2023-03-31T05:09:43;99605.97;;;9.27;100.00
50103;BME280;35993;52.604;10.078;2023-03-31T05:12:09;99608.25;;;9.30;100.00
50103;BME280;35993;52.604;10.078;2023-03-31T05:14:35;99604.69;;;9.29;100.00
50103;BME280;35993;52.604;10.078;2023-03-31T05:17:01;99590.09;;;9.30;100.00
50103;BME280;35993;52.604;10.078;2023-03-31T05:19:26;99583.03;;;9.29;100.00
50103;BME280;35993;52.604;10.078;2023-03-31T05:21:52;99580.06;;;9.31;100.00
50103;BME280;35993;52.604;10.078;2023-03-31T05:24:17;99565.34;;;9.27;100.00
50103;BME280;35993;52.604;10.078;2023-03-31T05:26:43;99569.25;;;9.19;100.00
50103;BME280;35993;52.604;10.078;2023-03-31T05:29:14;99563.59;;;9.21;100.00
50103;BME280;35993;52.604;10.078;2023-03-31T05:31:41;99566.53;;;9.19;100.00
50103;BME280;35993;52.604;10.078;2023-03-31T05:34:06;99556.31;;;9.21;100.00
50103;BME280;35993;52.604;10.078;2023-03-31T05:36:32;99555.00;;;9.24;100.00
50103;BME280;35993;52.604;10.078;2023-03-31T05:38:58;99551.25;;;9.25;100.00
50103;BME280;35993;52.604;10.078;2023-03-31T05:41:24;99552.88;;;9.26;100.00
50103;BME280;35993;52.604;10.078;2023-03-31T05:43:49;99551.00;;;9.26;100.00
50103;BME280;35993;52.604;10.078;2023-03-31T05:46:15;99554.06;;;9.30;100.00
50103;BME280;35993;52.604;10.078;2023-03-31T05:48:40;99558.66;;;9.29;100.00
50103;BME280;35993;52.604;10.078;2023-03-31T05:51:06;99551.94;;;9.32;100.00
50103;BME280;35993;52.604;10.078;2023-03-31T05:53:31;99549.00;;;9.33;100.00
50103;BME280;35993;52.604;10.078;2023-03-31T05:55:58;99547.72;;;9.36;100.00
50103;BME280;35993;52.604;10.078;2023-03-31T05:58:25;99548.88;;;9.40;100.00
50103;BME280;35993;52.604;10.078;2023-03-31T06:01:03;99553.34;;;9.34;100.00
50103;BME280;35993;52.604;10.078;2023-03-31T06:03:31;99555.00;;;9.35;100.00
50103;BME280;35993;52.604;10.078;2023-03-31T06:05:57;99557.47;;;9.37;100.00
50103;BME280;35993;52.604;10.078;2023-03-31T06:08:23;99551.22;;;9.37;100.00
50103;BME280;35993;52.604;10.078;2023-03-31T06:10:49;99549.34;;;9.37;100.00
50103;BME280;35993;52.604;10.078;2023-03-31T06:13:15;99554.63;;;9.32;100.00
50103;BME280;35993;52.604;10.078;2023-03-31T06:15:41;99560.66;;;9.34;100.00
50103;BME280;35993;52.604;10.078;2023-03-31T06:18:06;99544.41;;;9.34;100.00
50103;BME280;35993;52.604;10.078;2023-03-31T06:20:36;99541.69;;;9.34;100.00
50103;BME280;35993;52.604;10.078;2023-03-31T06:23:02;99551.00;;;9.26;100.00
50103;BME280;35993;52.604;10.078;2023-03-31T06:25:27;99535.00;;;9.25;100.00
50103;BME280;35993;52.604;10.078;2023-03-31T06:27:53;99536.97;;;9.29;100.00
50103;BME280;35993;52.604;10.078;2023-03-31T06:30:18;99526.38;;;9.28;100.00
50103;BME280;35993;52.604;10.078;2023-03-31T06:32:44;99532.75;;;9.22;100.00
50103;BME280;35993;52.604;10.078;2023-03-31T06:35:09;99521.91;;;9.22;100.00
50103;BME280;35993;52.604;10.078;2023-03-31T06:37:35;99510.03;;;9.23;100.00
50103;BME280;35993;52.604;10.078;2023-03-31T06:40:00;99508.97;;;9.24;100.00
50103;BME280;35993;52.604;10.078;2023-03-31T06:42:26;99503.19;;;9.32;100.00
50103;BME280;35993;52.604;10.078;2023-03-31T06:44:51;99503.19;;;9.32;100.00
50103;BME280;35993;52.604;10.078;2023-03-31T06:47:17;99500.56;;;9.37;100.00
50103;BME280;35993;52.604;10.078;2023-03-31T06:49:42;99506.69;;;9.44;100.00
50103;BME280;35993;52.604;10.078;2023-03-31T06:52:08;99501.63;;;9.48;100.00
50103;BME280;35993;52.604;10.078;2023-03-31T06:54:33;99501.53;;;9.43;100.00
50103;BME280;35993;52.604;10.078;2023-03-31T06:56:59;99502.59;;;9.42;100.00
50103;BME280;35993;52.604;10.078;2023-03-31T06:59:24;99504.00;;;9.44;100.00
50103;BME280;35993;52.604;10.078;2023-03-31T07:01:50;99508.81;;;9.42;100.00
50103;BME280;35993;52.604;10.078;2023-03-31T07:04:15;99508.25;;;9.40;100.00
50103;BME280;35993;52.604;10.078;2023-03-31T07:06:41;99503.28;;;9.37;100.00
50103;BME280;35993;52.604;10.078;2023-03-31T07:09:07;99504.38;;;9.36;100.00
50103;BME280;35993;52.604;10.078;2023-03-31T07:11:32;99494.59;;;9.35;100.00
50103;BME280;35993;52.604;10.078;2023-03-31T07:13:57;99495.06;;;9.32;100.00
50103;BME280;35993;52.604;10.078;2023-03-31T07:16:23;99490.97;;;9.17;100.00
50103;BME280;35993;52.604;10.078;2023-03-31T07:18:49;99496.63;;;9.16;100.00
50103;BME280;35993;52.604;10.078;2023-03-31T07:21:16;99490.16;;;9.17;100.00
50103;BME280;35993;52.604;10.078;2023-03-31T07:23:41;99483.09;;;9.16;100.00
50103;BME280;35993;52.604;10.078;2023-03-31T07:26:07;99482.25;;;9.15;100.00
50103;BME280;35993;52.604;10.078;2023-03-31T07:28:33;99484.16;;;9.15;100.00
50103;BME280;35993;52.604;10.078;2023-03-31T07:30:59;99484.75;;;9.17;100.00
50103;BME280;35993;52.604;10.078;2023-03-31T07:33:25;99482.13;;;9.22;100.00
50103;BME280;35993;52.604;10.078;2023-03-31T07:35:50;99477.63;;;9.28;100.00
50103;BME280;35993;52.604;10.078;2023-03-31T07:38:16;99487.66;;;9.27;100.00
50103;BME280;35993;52.604;10.078;2023-03-31T07:40:43;99474.59;;;9.24;100.00
50103;BME280;35993;52.604;10.078;2023-03-31T07:43:09;99471.72;;;9.31;100.00
50103;BME280;35993;52.604;10.078;2023-03-31T07:45:34;99467.75;;;9.33;100.00
50103;BME280;35993;52.604;10.078;2023-03-31T07:48:00;99461.13;;;9.41;100.00
50103;BME280;35993;52.604;10.078;2023-03-31T07:50:25;99456.97;;;9.50;100.00
50103;BME280;35993;52.604;10.078;2023-03-31T07:52:53;99463.09;;;9.46;100.00
50103;BME280;35993;52.604;10.078;2023-03-31T07:55:19;99455.81;;;9.46;100.00
50103;BME280;35993;52.604;10.078;2023-03-31T07:57:45;99459.19;;;9.54;100.00
50103;BME280;35993;52.604;10.078;2023-03-31T08:00:13;99453.06;;;9.58;100.00
50103;BME280;35993;52.604;10.078;2023-03-31T08:02:41;99451.66;;;9.56;100.00
50103;BME280;35993;52.604;10.078;2023-03-31T08:05:11;99447.66;;;9.58;100.00
50103;BME280;35993;52.604;10.078;2023-03-31T08:07:39;99435.50;;;9.61;100.00
50103;BME280;35993;52.604;10.078;2023-03-31T08:10:08;99436.47;;;9.55;100.00
50103;BME280;35993;52.604;10.078;2023-03-31T08:12:35;99433.66;;;9.49;100.00
50103;BME280;35993;52.604;10.078;2023-03-31T08:15:00;99435.31;;;9.50;100.00
50103;BME280;35993;52.604;10.078;2023-03-31T08:17:26;99421.63;;;9.57;100.00
50103;BME280;35993;52.604;10.078;2023-03-31T08:19:51;99416.88;;;9.64;100.00
50103;BME280;35993;52.604;10.078;2023-03-31T08:22:17;99417.53;;;9.72;100.00
50103;BME280;35993;52.604;10.078;2023-03-31T08:24:43;99414.00;;;9.71;100.00
50103;BME280;35993;52.604;10.078;2023-03-31T08:27:08;99412.94;;;9.72;100.00
50103;BME280;35993;52.604;10.078;2023-03-31T08:29:37;99400.81;;;9.75;100.00
50103;BME280;35993;52.604;10.078;2023-03-31T08:32:02;99394.06;;;9.77;100.00
50103;BME280;35993;52.604;10.078;2023-03-31T08:34:28;99394.72;;;9.84;100.00
50103;BME280;35993;52.604;10.078;2023-03-31T08:36:53;99398.59;;;9.89;100.00
50103;BME280;35993;52.604;10.078;2023-03-31T08:39:19;99394.00;;;9.89;100.00
50103;BME280;35993;52.604;10.078;2023-03-31T08:41:52;99392.69;;;9.92;100.00
50103;BME280;35993;52.604;10.078;2023-03-31T08:44:25;99386.59;;;9.84;100.00
50103;BME280;35993;52.604;10.078;2023-03-31T08:46:56;99388.25;;;9.86;100.00
50103;BME280;35993;52.604;10.078;2023-03-31T08:49:25;99379.38;;;9.90;100.00
50103;BME280;35993;52.604;10.078;2023-03-31T08:51:55;99376.91;;;9.89;100.00
50103;BME280;35993;52.604;10.078;2023-03-31T08:54:32;99375.59;;;9.91;100.00
50103;BME280;35993;52.604;10.078;2023-03-31T08:56:59;99363.84;;;9.86;100.00
50103;BME280;35993;52.604;10.078;2023-03-31T09:07:17;99344.63;;;10.04;100.00
50103;BME280;35993;52.604;10.078;2023-03-31T09:10:13;99341.34;;;10.02;100.00
50103;BME280;35993;52.604;10.078;2023-03-31T09:15:47;99340.28;;;10.03;100.00
50103;BME280;35993;52.604;10.078;2023-03-31T09:18:31;99339.38;;;9.97;100.00
50103;BME280;35993;52.604;10.078;2023-03-31T09:21:21;99327.97;;;9.95;100.00
50103;BME280;35993;52.604;10.078;2023-03-31T09:23:54;99323.34;;;9.96;100.00
50103;BME280;35993;52.604;10.078;2023-03-31T09:26:39;99318.25;;;9.99;100.00
50103;BME280;35993;52.604;10.078;2023-03-31T09:29:13;99324.25;;;10.02;100.00
50103;BME280;35993;52.604;10.078;2023-03-31T09:31:42;99311.78;;;10.00;100.00
50103;BME280;35993;52.604;10.078;2023-03-31T09:34:19;99311.84;;;10.06;100.00
50103;BME280;35993;52.604;10.078;2023-03-31T09:36:48;99305.09;;;10.08;100.00
50103;BME280;35993;52.604;10.078;2023-03-31T09:39:13;99309.47;;;10.09;100.00
50103;BME280;35993;52.604;10.078;2023-03-31T09:41:43;99298.03;;;10.07;100.00
50103;BME280;35993;52.604;10.078;2023-03-31T09:44:26;99297.56;;;10.10;100.00
50103;BME280;35993;52.604;10.078;2023-03-31T09:46:53;99300.34;;;10.15;100.00
50103;BME280;35993;52.604;10.078;2023-03-31T09:49:22;99290.38;;;10.21;100.00
50103;BME280;35993;52.604;10.078;2023-03-31T09:52:40;99293.47;;;10.30;100.00
50103;BME280;35993;52.604;10.078;2023-03-31T09:55:21;99292.91;;;10.28;100.00
50103;BME280;35993;52.604;10.078;2023-03-31T09:57:51;99291.09;;;10.33;100.00
50103;BME280;35993;52.604;10.078;2023-03-31T10:00:20;99283.31;;;10.37;100.00
50103;BME280;35993;52.604;10.078;2023-03-31T10:02:51;99279.56;;;10.43;100.00
50103;BME280;35993;52.604;10.078;2023-03-31T10:05:50;99276.19;;;10.53;100.00
50103;BME280;35993;52.604;10.078;2023-03-31T10:10:55;99274.13;;;10.60;100.00
50103;BME280;35993;52.604;10.078;2023-03-31T10:13:26;99268.09;;;10.58;100.00
50103;BME280;35993;52.604;10.078;2023-03-31T10:15:59;99268.16;;;10.63;100.00
50103;BME280;35993;52.604;10.078;2023-03-31T10:18:34;99261.88;;;10.58;100.00
50103;BME280;35993;52.604;10.078;2023-03-31T10:21:02;99258.00;;;10.54;100.00
50103;BME280;35993;52.604;10.078;2023-03-31T10:23:30;99266.66;;;10.51;100.00
50103;BME280;35993;52.604;10.078;2023-03-31T10:25:58;99258.50;;;10.51;100.00
50103;BME280;35993;52.604;10.078;2023-03-31T10:28:24;99258.72;;;10.44;100.00
50103;BME280;35993;52.604;10.078;2023-03-31T10:30:53;99252.63;;;10.37;100.00
50103;BME280;35993;52.604;10.078;2023-03-31T10:33:22;99261.00;;;10.35;100.00
50103;BME280;35993;52.604;10.078;2023-03-31T10:35:59;99255.84;;;10.33;100.00
50103;BME280;35993;52.604;10.078;2023-03-31T10:38:41;99247.50;;;10.18;100.00
50103;BME280;35993;52.604;10.078;2023-03-31T10:41:10;99255.63;;;10.18;100.00
50103;BME280;35993;52.604;10.078;2023-03-31T10:43:41;99249.38;;;10.17;100.00
50103;BME280;35993;52.604;10.078;2023-03-31T10:46:08;99243.69;;;10.19;100.00
50103;BME280;35993;52.604;10.078;2023-03-31T10:48:36;99245.59;;;10.19;100.00
50103;BME280;35993;52.604;10.078;2023-03-31T10:53:45;99244.53;;;10.20;100.00
50103;BME280;35993;52.604;10.078;2023-03-31T11:15:19;99236.41;;;10.20;100.00
50103;BME280;35993;52.604;10.078;2023-03-31T11:23:20;99239.38;;;10.18;100.00
50103;BME280;35993;52.604;10.078;2023-03-31T11:25:51;99240.91;;;10.14;100.00
50103;BME280;35993;52.604;10.078;2023-03-31T11:39:31;99220.91;;;9.98;100.00
50103;BME280;35993;52.604;10.078;2023-03-31T11:42:08;99227.47;;;10.02;100.00
50103;BME280;35993;52.604;10.078;2023-03-31T11:44:56;99227.00;;;10.05;100.00
50103;BME280;35993;52.604;10.078;2023-03-31T11:47:27;99217.75;;;10.06;100.00
50103;BME280;35993;52.604;10.078;2023-03-31T11:50:13;99217.22;;;10.04;100.00
50103;BME280;35993;52.604;10.078;2023-03-31T11:52:52;99217.69;;;10.01;100.00
50103;BME280;35993;52.604;10.078;2023-03-31T11:55:22;99217.69;;;10.01;100.00
50103;BME280;35993;52.604;10.078;2023-03-31T12:00:38;99215.75;;;10.19;100.00
50103;BME280;35993;52.604;10.078;2023-03-31T12:03:11;99207.31;;;10.15;100.00
50103;BME280;35993;52.604;10.078;2023-03-31T12:05:44;99205.72;;;10.19;100.00
50103;BME280;35993;52.604;10.078;2023-03-31T12:08:16;99205.78;;;10.24;100.00
50103;BME280;35993;52.604;10.078;2023-03-31T12:11:23;99195.53;;;10.26;100.00
50103;BME280;35993;52.604;10.078;2023-03-31T12:17:01;99210.16;;;10.25;100.00
50103;BME280;35993;52.604;10.078;2023-03-31T12:19:56;99195.47;;;10.21;100.00
50103;BME280;35993;52.604;10.078;2023-03-31T12:22:28;99199.28;;;10.25;100.00
50103;BME280;35993;52.604;10.078;2023-03-31T12:24:55;99195.09;;;10.35;100.00
50103;BME280;35993;52.604;10.078;2023-03-31T12:27:33;99190.81;;;10.39;100.00
50103;BME280;35993;52.604;10.078;2023-03-31T12:30:09;99191.00;;;10.32;100.00
50103;BME280;35993;52.604;10.078;2023-03-31T12:32:40;99188.38;;;10.37;100.00
50103;BME280;35993;52.604;10.078;2023-03-31T12:40:32;99187.34;;;10.43;100.00
50103;BME280;35993;52.604;10.078;2023-03-31T12:48:56;99180.00;;;10.66;100.00
50103;BME280;35993;52.604;10.078;2023-03-31T12:59:40;99166.78;;;10.75;100.00
50103;BME280;35993;52.604;10.078;2023-03-31T13:04:35;99163.38;;;10.85;100.00
50103;BME280;35993;52.604;10.078;2023-03-31T13:07:02;99157.72;;;10.91;100.00
50103;BME280;35993;52.604;10.078;2023-03-31T13:09:38;99163.41;;;10.90;100.00
50103;BME280;35993;52.604;10.078;2023-03-31T13:12:06;99156.66;;;10.92;100.00
50103;BME280;35993;52.604;10.078;2023-03-31T13:14:37;99147.72;;;10.97;100.00
50103;BME280;35993;52.604;10.078;2023-03-31T13:19:47;99145.56;;;10.99;100.00
50103;BME280;35993;52.604;10.078;2023-03-31T13:22:34;99140.13;;;10.99;100.00
50103;BME280;35993;52.604;10.078;2023-03-31T13:27:54;99138.50;;;10.98;100.00
50103;BME280;35993;52.604;10.078;2023-03-31T13:33:06;99131.72;;;11.01;100.00
50103;BME280;35993;52.604;10.078;2023-03-31T13:35:37;99138.03;;;11.06;100.00
50103;BME280;35993;52.604;10.078;2023-03-31T13:38:36;99135.81;;;11.03;100.00
50103;BME280;35993;52.604;10.078;2023-03-31T13:41:43;99141.56;;;11.07;100.00
50103;BME280;35993;52.604;10.078;2023-03-31T13:52:13;99124.13;;;11.35;100.00
50103;BME280;35993;52.604;10.078;2023-03-31T13:55:08;99120.88;;;11.38;100.00
50103;BME280;35993;52.604;10.078;2023-03-31T14:04:00;99112.91;;;11.69;100.00
50103;BME280;35993;52.604;10.078;2023-03-31T14:06:58;99113.19;;;11.68;100.00
50103;BME280;35993;52.604;10.078;2023-03-31T14:09:32;99108.59;;;11.78;100.00
50103;BME280;35993;52.604;10.078;2023-03-31T14:11:59;99114.47;;;12.03;100.00
50103;BME280;35993;52.604;10.078;2023-03-31T14:14:25;99108.53;;;12.16;100.00
50103;BME280;35993;52.604;10.078;2023-03-31T14:16:56;99104.75;;;12.27;100.00
50103;BME280;35993;52.604;10.078;2023-03-31T14:26:09;99093.31;;;12.20;100.00
50103;BME280;35993;52.604;10.078;2023-03-31T14:36:48;99093.03;;;12.17;100.00
50103;BME280;35993;52.604;10.078;2023-03-31T14:39:24;99085.16;;;12.25;100.00
50103;BME280;35993;52.604;10.078;2023-03-31T14:41:58;99091.44;;;12.36;100.00
50103;BME280;35993;52.604;10.078;2023-03-31T14:44:25;99085.94;;;12.16;100.00
50103;BME280;35993;52.604;10.078;2023-03-31T14:46:51;99083.97;;;11.95;100.00
50103;BME280;35993;52.604;10.078;2023-03-31T14:49:33;99088.53;;;11.85;100.00
50103;BME280;35993;52.604;10.078;2023-03-31T14:52:01;99090.38;;;11.79;100.00
50103;BME280;35993;52.604;10.078;2023-03-31T14:54:33;99082.47;;;11.72;100.00
50103;BME280;35993;52.604;10.078;2023-03-31T14:57:01;99089.81;;;11.72;100.00
50103;BME280;35993;52.604;10.078;2023-03-31T14:59:29;99088.16;;;11.66;100.00
50103;BME280;35993;52.604;10.078;2023-03-31T15:01:58;99090.44;;;11.84;100.00
50103;BME280;35993;52.604;10.078;2023-03-31T15:04:27;99094.84;;;11.95;100.00
50103;BME280;35993;52.604;10.078;2023-03-31T15:06:58;99079.69;;;12.10;100.00
50103;BME280;35993;52.604;10.078;2023-03-31T15:09:34;99079.44;;;12.22;100.00
50103;BME280;35993;52.604;10.078;2023-03-31T15:12:09;99087.34;;;12.39;100.00
50103;BME280;35993;52.604;10.078;2023-03-31T15:14:41;99081.13;;;12.49;100.00
50103;BME280;35993;52.604;10.078;2023-03-31T15:17:24;99086.03;;;12.52;100.00
50103;BME280;35993;52.604;10.078;2023-03-31T15:19:55;99079.50;;;12.53;100.00
50103;BME280;35993;52.604;10.078;2023-03-31T15:22:23;99072.16;;;12.48;100.00
50103;BME280;35993;52.604;10.078;2023-03-31T15:24:53;99073.75;;;12.44;100.00
50103;BME280;35993;52.604;10.078;2023-03-31T15:27:38;99080.53;;;12.36;100.00
50103;BME280;35993;52.604;10.078;2023-03-31T15:30:11;99077.84;;;12.46;100.00
50103;BME280;35993;52.604;10.078;2023-03-31T15:32:39;99084.94;;;12.63;100.00
50103;BME280;35993;52.604;10.078;2023-03-31T15:35:06;99083.34;;;12.83;100.00
50103;BME280;35993;52.604;10.078;2023-03-31T15:37:39;99075.72;;;12.85;100.00
50103;BME280;35993;52.604;10.078;2023-03-31T15:40:36;99080.06;;;12.81;100.00